sensor_id;sensor_type;location;lat;lon;timestamp;temperature;humidity
8888;DHT22;4480;52.370;9.748;2023-07-31T00:00:09;16.10;99.90
8888;DHT22;4480;52.370;9.748;2023-07-31T00:02:36;16.10;99.90
8888;DHT22;4480;52.370;9.748;2023-07-31T00:05:03;16.20;99.90
8888;DHT22;4480;52.370;9.748;2023-07-31T00:07:31;16.20;99.90
8888;DHT22;4480;52.370;9.748;2023-07-31T00:10:00;16.20;99.90
8888;DHT22;4480;52.370;9.748;2023-07-31T00:12:26;16.20;99.90
8888;DHT22;4480;52.370;9.748;2023-07-31T00:14:53;16.20;99.90
8888;DHT22;4480;52.370;9.748;2023-07-31T00:17:20;16.20;99.90
8888;DHT22;4480;52.370;9.748;2023-07-31T00:19:47;16.20;99.90
8888;DHT22;4480;52.370;9.748;2023-07-31T00:22:16;16.10;99.90
8888;DHT22;4480;52.370;9.748;2023-07-31T00:24:43;16.10;99.90
8888;DHT22;4480;52.370;9.748;2023-07-31T00:27:11;16.10;99.90
8888;DHT22;4480;52.370;9.748;2023-07-31T00:29:37;16.20;99.90
8888;DHT22;4480;52.370;9.748;2023-07-31T00:32:05;16.20;99.90
8888;DHT22;4480;52.370;9.748;2023-07-31T00:34:32;16.20;99.90
8888;DHT22;4480;52.370;9.748;2023-07-31T00:36:59;16.20;99.90
8888;DHT22;4480;52.370;9.748;2023-07-31T00:39:26;16.20;99.90
8888;DHT22;4480;52.370;9.748;2023-07-31T00:41:53;16.20;99.90
8888;DHT22;4480;52.370;9.748;2023-07-31T00:44:21;16.20;99.90
8888;DHT22;4480;52.370;9.748;2023-07-31T00:46:48;16.20;99.90
8888;DHT22;4480;52.370;9.748;2023-07-31T00:49:15;16.20;99.90
8888;DHT22;4480;52.370;9.748;2023-07-31T00:51:42;16.20;99.90
8888;DHT22;4480;52.370;9.748;2023-07-31T00:54:09;16.20;99.90
8888;DHT22;4480;52.370;9.748;2023-07-31T00:56:37;16.20;99.90
8888;DHT22;4480;52.370;9.748;2023-07-31T00:59:04;16.20;99.90
8888;DHT22;4480;52.370;9.748;2023-07-31T01:01:32;16.20;99.90
8888;DHT22;4480;52.370;9.748;2023-07-31T01:03:59;16.30;99.90
8888;DHT22;4480;52.370;9.748;2023-07-31T01:06:31;16.20;99.90
8888;DHT22;4480;52.370;9.748;2023-07-31T01:09:02;16.20;99.90
8888;DHT22;4480;52.370;9.748;2023-07-31T01:11:31;16.30;99.90
8888;DHT22;4480;52.370;9.748;2023-07-31T01:13:59;16.30;99.90
8888;DHT22;4480;52.370;9.748;2023-07-31T01:16:26;16.20;99.90
8888;DHT22;4480;52.370;9.748;2023-07-31T01:18:55;16.20;99.90
8888;DHT22;4480;52.370;9.748;2023-07-31T01:21:41;16.20;99.90
8888;DHT22;4480;52.370;9.748;2023-07-31T01:24:23;16.20;99.90
8888;DHT22;4480;52.370;9.748;2023-07-31T01:26:57;16.20;99.90
8888;DHT22;4480;52.370;9.748;2023-07-31T01:29:29;16.20;99.90
8888;DHT22;4480;52.370;9.748;2023-07-31T01:32:00;16.20;99.90
8888;DHT22;4480;52.370;9.748;2023-07-31T01:34:28;16.10;99.90
8888;DHT22;4480;52.370;9.748;2023-07-31T01:36:56;16.10;99.90
8888;DHT22;4480;52.370;9.748;2023-07-31T01:39:22;16.10;99.90
8888;DHT22;4480;52.370;9.748;2023-07-31T01:41:49;16.10;99.90
8888;DHT22;4480;52.370;9.748;2023-07-31T01:44:17;16.10;99.90
8888;DHT22;4480;52.370;9.748;2023-07-31T01:46:44;16.10;99.90
8888;DHT22;4480;52.370;9.748;2023-07-31T01:49:11;16.10;99.90
8888;DHT22;4480;52.370;9.748;2023-07-31T01:51:38;16.00;99.90
8888;DHT22;4480;52.370;9.748;2023-07-31T01:54:04;16.00;99.90
8888;DHT22;4480;52.370;9.748;2023-07-31T01:56:31;16.00;99.90
8888;DHT22;4480;52.370;9.748;2023-07-31T01:58:58;16.00;99.90
8888;DHT22;4480;52.370;9.748;2023-07-31T02:01:26;16.00;99.90
8888;DHT22;4480;52.370;9.748;2023-07-31T02:03:53;16.00;99.90
8888;DHT22;4480;52.370;9.748;2023-07-31T02:06:20;16.00;99.90
8888;DHT22;4480;52.370;9.748;2023-07-31T02:08:48;16.00;99.90
8888;DHT22;4480;52.370;9.748;2023-07-31T02:11:14;15.90;99.90
8888;DHT22;4480;52.370;9.748;2023-07-31T02:13:41;15.90;99.90
8888;DHT22;4480;52.370;9.748;2023-07-31T02:16:08;15.90;99.90
8888;DHT22;4480;52.370;9.748;2023-07-31T02:18:36;15.90;99.90
8888;DHT22;4480;52.370;9.748;2023-07-31T02:21:03;15.90;99.90
8888;DHT22;4480;52.370;9.748;2023-07-31T02:23:30;15.90;99.90
8888;DHT22;4480;52.370;9.748;2023-07-31T02:25:57;15.90;99.90
8888;DHT22;4480;52.370;9.748;2023-07-31T02:28:24;15.90;99.90
8888;DHT22;4480;52.370;9.748;2023-07-31T02:30:51;15.90;99.90
8888;DHT22;4480;52.370;9.748;2023-07-31T02:33:18;16.00;99.90
8888;DHT22;4480;52.370;9.748;2023-07-31T02:35:46;16.00;99.90
8888;DHT22;4480;52.370;9.748;2023-07-31T02:38:13;16.00;99.90
8888;DHT22;4480;52.370;9.748;2023-07-31T02:40:39;16.00;99.90
8888;DHT22;4480;52.370;9.748;2023-07-31T02:43:06;16.00;99.90
8888;DHT22;4480;52.370;9.748;2023-07-31T02:45:33;16.00;99.90
8888;DHT22;4480;52.370;9.748;2023-07-31T02:48:00;16.00;99.90
8888;DHT22;4480;52.370;9.748;2023-07-31T02:50:27;16.00;99.90
8888;DHT22;4480;52.370;9.748;2023-07-31T02:52:55;16.00;99.90
8888;DHT22;4480;52.370;9.748;2023-07-31T02:55:22;16.00;99.90
8888;DHT22;4480;52.370;9.748;2023-07-31T02:57:49;16.00;99.90
8888;DHT22;4480;52.370;9.748;2023-07-31T03:00:17;15.90;99.90
8888;DHT22;4480;52.370;9.748;2023-07-31T03:02:44;16.00;99.90
8888;DHT22;4480;52.370;9.748;2023-07-31T03:05:11;15.90;99.90
8888;DHT22;4480;52.370;9.748;2023-07-31T03:07:38;15.90;99.90
8888;DHT22;4480;52.370;9.748;2023-07-31T03:10:07;15.90;99.90
8888;DHT22;4480;52.370;9.748;2023-07-31T03:12:34;15.90;99.90
8888;DHT22;4480;52.370;9.748;2023-07-31T03:15:01;15.90;99.90
8888;DHT22;4480;52.370;9.748;2023-07-31T03:17:27;15.90;99.90
8888;DHT22;4480;52.370;9.748;2023-07-31T03:19:54;15.90;99.90
8888;DHT22;4480;52.370;9.748;2023-07-31T03:22:21;15.90;99.90
8888;DHT22;4480;52.370;9.748;2023-07-31T03:24:48;15.90;99.90
8888;DHT22;4480;52.370;9.748;2023-07-31T03:27:16;15.90;99.90
8888;DHT22;4480;52.370;9.748;2023-07-31T03:29:43;15.90;99.90
8888;DHT22;4480;52.370;9.748;2023-07-31T03:32:09;15.90;99.90
8888;DHT22;4480;52.370;9.748;2023-07-31T03:34:36;15.90;99.90
8888;DHT22;4480;52.370;9.748;2023-07-31T03:37:03;15.90;99.90
8888;DHT22;4480;52.370;9.748;2023-07-31T03:39:31;15.90;99.90
8888;DHT22;4480;52.370;9.748;2023-07-31T03:41:58;15.90;99.90
8888;DHT22;4480;52.370;9.748;2023-07-31T03:44:26;15.90;99.90
8888;DHT22;4480;52.370;9.748;2023-07-31T03:46:52;15.90;99.90
8888;DHT22;4480;52.370;9.748;2023-07-31T03:49:19;15.90;99.90
8888;DHT22;4480;52.370;9.748;2023-07-31T03:51:46;15.90;99.90
8888;DHT22;4480;52.370;9.748;2023-07-31T03:54:13;15.90;99.90
8888;DHT22;4480;52.370;9.748;2023-07-31T03:56:40;15.90;99.90
8888;DHT22;4480;52.370;9.748;2023-07-31T03:59:06;15.90;99.90
8888;DHT22;4480;52.370;9.748;2023-07-31T04:01:35;15.90;99.90
8888;DHT22;4480;52.370;9.748;2023-07-31T04:04:01;15.90;99.90
8888;DHT22;4480;52.370;9.748;2023-07-31T04:06:28;15.90;99.90
8888;DHT22;4480;52.370;9.748;2023-07-31T04:12:00;15.90;99.90
8888;DHT22;4480;52.370;9.748;2023-07-31T04:14:26;15.80;99.90
8888;DHT22;4480;52.370;9.748;2023-07-31T04:16:53;15.80;99.90
8888;DHT22;4480;52.370;9.748;2023-07-31T04:19:20;15.80;99.90
8888;DHT22;4480;52.370;9.748;2023-07-31T04:21:47;15.80;99.90
8888;DHT22;4480;52.370;9.748;2023-07-31T04:24:13;15.70;99.90
8888;DHT22;4480;52.370;9.748;2023-07-31T04:26:40;15.70;99.90
8888;DHT22;4480;52.370;9.748;2023-07-31T04:29:08;15.70;99.90
8888;DHT22;4480;52.370;9.748;2023-07-31T04:31:35;15.70;99.90
8888;DHT22;4480;52.370;9.748;2023-07-31T04:34:02;15.80;99.90
8888;DHT22;4480;52.370;9.748;2023-07-31T04:36:30;15.80;99.90
8888;DHT22;4480;52.370;9.748;2023-07-31T04:38:56;15.80;99.90
8888;DHT22;4480;52.370;9.748;2023-07-31T04:41:23;15.80;99.90
8888;DHT22;4480;52.370;9.748;2023-07-31T04:43:50;15.80;99.90
8888;DHT22;4480;52.370;9.748;2023-07-31T04:46:18;15.80;99.90
8888;DHT22;4480;52.370;9.748;2023-07-31T04:48:45;15.80;99.90
8888;DHT22;4480;52.370;9.748;2023-07-31T04:51:12;15.80;99.90
8888;DHT22;4480;52.370;9.748;2023-07-31T04:53:39;15.80;99.90
8888;DHT22;4480;52.370;9.748;2023-07-31T04:56:05;15.80;99.90
8888;DHT22;4480;52.370;9.748;2023-07-31T04:58:32;15.80;99.90
8888;DHT22;4480;52.370;9.748;2023-07-31T05:00:59;15.80;99.90
8888;DHT22;4480;52.370;9.748;2023-07-31T05:03:27;15.80;99.90
8888;DHT22;4480;52.370;9.748;2023-07-31T05:05:54;15.70;99.90
8888;DHT22;4480;52.370;9.748;2023-07-31T05:08:20;15.70;99.90
8888;DHT22;4480;52.370;9.748;2023-07-31T05:10:47;15.70;99.90
8888;DHT22;4480;52.370;9.748;2023-07-31T05:13:14;15.70;99.90
8888;DHT22;4480;52.370;9.748;2023-07-31T05:15:41;15.70;99.90
8888;DHT22;4480;52.370;9.748;2023-07-31T05:18:08;15.70;99.90
8888;DHT22;4480;52.370;9.748;2023-07-31T05:20:36;15.60;99.90
8888;DHT22;4480;52.370;9.748;2023-07-31T05:23:03;15.60;99.90
8888;DHT22;4480;52.370;9.748;2023-07-31T05:25:29;15.60;99.90
8888;DHT22;4480;52.370;9.748;2023-07-31T05:27:56;15.60;99.90
8888;DHT22;4480;52.370;9.748;2023-07-31T05:30:23;15.60;99.90
8888;DHT22;4480;52.370;9.748;2023-07-31T05:32:50;15.60;99.90
8888;DHT22;4480;52.370;9.748;2023-07-31T05:35:17;15.70;99.90
8888;DHT22;4480;52.370;9.748;2023-07-31T05:37:45;15.70;99.90
8888;DHT22;4480;52.370;9.748;2023-07-31T05:40:11;15.70;99.90
8888;DHT22;4480;52.370;9.748;2023-07-31T05:42:38;15.70;99.90
8888;DHT22;4480;52.370;9.748;2023-07-31T05:45:06;15.70;99.90
8888;DHT22;4480;52.370;9.748;2023-07-31T05:47:33;15.70;99.90
8888;DHT22;4480;52.370;9.748;2023-07-31T05:50:00;15.70;99.90
8888;DHT22;4480;52.370;9.748;2023-07-31T05:52:27;15.80;99.90
8888;DHT22;4480;52.370;9.748;2023-07-31T05:54:55;15.80;99.90
8888;DHT22;4480;52.370;9.748;2023-07-31T05:57:22;15.80;99.90
8888;DHT22;4480;52.370;9.748;2023-07-31T05:59:49;15.80;99.90
8888;DHT22;4480;52.370;9.748;2023-07-31T06:02:16;15.80;99.90
8888;DHT22;4480;52.370;9.748;2023-07-31T06:04:42;15.80;99.90
8888;DHT22;4480;52.370;9.748;2023-07-31T06:07:09;15.90;99.90
8888;DHT22;4480;52.370;9.748;2023-07-31T06:09:37;15.90;99.90
8888;DHT22;4480;52.370;9.748;2023-07-31T06:12:05;15.90;99.90
8888;DHT22;4480;52.370;9.748;2023-07-31T06:14:32;16.00;99.90
8888;DHT22;4480;52.370;9.748;2023-07-31T06:16:59;16.00;99.90
8888;DHT22;4480;52.370;9.748;2023-07-31T06:19:26;16.10;99.90
8888;DHT22;4480;52.370;9.748;2023-07-31T06:21:53;16.10;99.90
8888;DHT22;4480;52.370;9.748;2023-07-31T06:24:19;16.10;99.90
8888;DHT22;4480;52.370;9.748;2023-07-31T06:26:47;16.20;99.90
8888;DHT22;4480;52.370;9.748;2023-07-31T06:29:15;16.20;99.90
8888;DHT22;4480;52.370;9.748;2023-07-31T06:31:42;16.20;99.90
8888;DHT22;4480;52.370;9.748;2023-07-31T06:34:09;16.20;99.90
8888;DHT22;4480;52.370;9.748;2023-07-31T06:36:36;16.10;99.90
8888;DHT22;4480;52.370;9.748;2023-07-31T06:39:02;16.10;99.90
8888;DHT22;4480;52.370;9.748;2023-07-31T06:41:29;16.10;99.90
8888;DHT22;4480;52.370;9.748;2023-07-31T06:43:56;16.10;99.90
8888;DHT22;4480;52.370;9.748;2023-07-31T06:46:24;16.10;99.90
8888;DHT22;4480;52.370;9.748;2023-07-31T06:48:51;16.00;99.90
8888;DHT22;4480;52.370;9.748;2023-07-31T06:51:18;16.00;99.90
8888;DHT22;4480;52.370;9.748;2023-07-31T06:53:45;16.00;99.90
8888;DHT22;4480;52.370;9.748;2023-07-31T06:56:12;16.00;99.90
8888;DHT22;4480;52.370;9.748;2023-07-31T06:58:39;16.00;99.90
8888;DHT22;4480;52.370;9.748;2023-07-31T07:01:06;15.90;99.90
8888;DHT22;4480;52.370;9.748;2023-07-31T07:03:34;15.90;99.90
8888;DHT22;4480;52.370;9.748;2023-07-31T07:06:01;15.90;99.90
8888;DHT22;4480;52.370;9.748;2023-07-31T07:08:28;15.90;99.90
8888;DHT22;4480;52.370;9.748;2023-07-31T07:10:54;15.90;99.90
8888;DHT22;4480;52.370;9.748;2023-07-31T07:13:21;15.90;99.90
8888;DHT22;4480;52.370;9.748;2023-07-31T07:15:49;15.90;99.90
8888;DHT22;4480;52.370;9.748;2023-07-31T07:18:16;16.00;99.90
8888;DHT22;4480;52.370;9.748;2023-07-31T07:20:48;16.00;99.90
8888;DHT22;4480;52.370;9.748;2023-07-31T07:23:15;16.10;99.90
8888;DHT22;4480;52.370;9.748;2023-07-31T07:25:42;16.10;99.90
8888;DHT22;4480;52.370;9.748;2023-07-31T07:28:09;16.10;99.90
8888;DHT22;4480;52.370;9.748;2023-07-31T07:30:36;16.10;99.90
8888;DHT22;4480;52.370;9.748;2023-07-31T07:33:03;16.00;99.90
8888;DHT22;4480;52.370;9.748;2023-07-31T07:35:30;16.10;99.90
8888;DHT22;4480;52.370;9.748;2023-07-31T07:37:58;16.20;99.90
8888;DHT22;4480;52.370;9.748;2023-07-31T07:40:26;16.30;99.90
8888;DHT22;4480;52.370;9.748;2023-07-31T07:42:53;16.50;99.90
8888;DHT22;4480;52.370;9.748;2023-07-31T07:45:19;16.70;99.90
8888;DHT22;4480;52.370;9.748;2023-07-31T07:47:46;16.80;99.90
8888;DHT22;4480;52.370;9.748;2023-07-31T07:50:13;17.00;99.90
8888;DHT22;4480;52.370;9.748;2023-07-31T07:52:40;17.20;99.90
8888;DHT22;4480;52.370;9.748;2023-07-31T07:55:08;17.40;99.90
8888;DHT22;4480;52.370;9.748;2023-07-31T07:57:35;17.60;99.90
8888;DHT22;4480;52.370;9.748;2023-07-31T08:00:02;17.70;99.90
8888;DHT22;4480;52.370;9.748;2023-07-31T08:02:29;17.90;99.90
8888;DHT22;4480;52.370;9.748;2023-07-31T08:04:59;17.90;99.90
8888;DHT22;4480;52.370;9.748;2023-07-31T08:07:26;18.10;99.90
8888;DHT22;4480;52.370;9.748;2023-07-31T08:09:52;18.10;99.90
8888;DHT22;4480;52.370;9.748;2023-07-31T08:12:20;18.10;99.90
8888;DHT22;4480;52.370;9.748;2023-07-31T08:14:47;18.00;99.90
8888;DHT22;4480;52.370;9.748;2023-07-31T08:17:14;18.00;99.90
8888;DHT22;4480;52.370;9.748;2023-07-31T08:19:41;18.00;99.90
8888;DHT22;4480;52.370;9.748;2023-07-31T08:22:08;18.00;99.90
8888;DHT22;4480;52.370;9.748;2023-07-31T08:24:34;18.10;99.90
8888;DHT22;4480;52.370;9.748;2023-07-31T08:27:01;18.10;99.90
8888;DHT22;4480;52.370;9.748;2023-07-31T08:29:30;18.00;99.90
8888;DHT22;4480;52.370;9.748;2023-07-31T08:31:56;18.00;99.90
8888;DHT22;4480;52.370;9.748;2023-07-31T08:34:24;18.10;99.90
8888;DHT22;4480;52.370;9.748;2023-07-31T08:36:50;18.10;99.90
8888;DHT22;4480;52.370;9.748;2023-07-31T08:39:17;18.10;99.90
8888;DHT22;4480;52.370;9.748;2023-07-31T08:41:44;18.30;99.90
8888;DHT22;4480;52.370;9.748;2023-07-31T08:44:12;18.40;99.90
8888;DHT22;4480;52.370;9.748;2023-07-31T08:46:41;18.50;99.90
8888;DHT22;4480;52.370;9.748;2023-07-31T08:49:09;18.40;99.90
8888;DHT22;4480;52.370;9.748;2023-07-31T08:51:37;18.30;99.90
8888;DHT22;4480;52.370;9.748;2023-07-31T08:54:04;18.20;99.90
8888;DHT22;4480;52.370;9.748;2023-07-31T08:56:32;18.10;99.90
8888;DHT22;4480;52.370;9.748;2023-07-31T08:59:01;18.10;99.90
8888;DHT22;4480;52.370;9.748;2023-07-31T09:01:30;18.20;99.90
8888;DHT22;4480;52.370;9.748;2023-07-31T09:03:59;18.50;99.90
8888;DHT22;4480;52.370;9.748;2023-07-31T09:06:28;18.70;99.90
8888;DHT22;4480;52.370;9.748;2023-07-31T09:08:56;18.80;99.90
8888;DHT22;4480;52.370;9.748;2023-07-31T09:11:24;18.80;99.90
8888;DHT22;4480;52.370;9.748;2023-07-31T09:13:52;18.70;99.90
8888;DHT22;4480;52.370;9.748;2023-07-31T09:16:20;18.60;99.90
8888;DHT22;4480;52.370;9.748;2023-07-31T09:18:54;18.70;99.90
8888;DHT22;4480;52.370;9.748;2023-07-31T09:21:24;18.80;99.90
8888;DHT22;4480;52.370;9.748;2023-07-31T09:23:51;19.00;99.90
8888;DHT22;4480;52.370;9.748;2023-07-31T09:26:29;19.20;99.90
8888;DHT22;4480;52.370;9.748;2023-07-31T09:28:56;19.30;99.90
8888;DHT22;4480;52.370;9.748;2023-07-31T09:31:38;19.40;99.90
8888;DHT22;4480;52.370;9.748;2023-07-31T09:34:05;19.40;99.90
8888;DHT22;4480;52.370;9.748;2023-07-31T09:36:40;19.30;99.90
8888;DHT22;4480;52.370;9.748;2023-07-31T09:39:09;19.30;99.90
8888;DHT22;4480;52.370;9.748;2023-07-31T09:41:36;19.20;99.90
8888;DHT22;4480;52.370;9.748;2023-07-31T09:44:04;19.10;99.90
8888;DHT22;4480;52.370;9.748;2023-07-31T09:46:31;19.10;99.90
8888;DHT22;4480;52.370;9.748;2023-07-31T09:49:05;19.00;99.90
8888;DHT22;4480;52.370;9.748;2023-07-31T09:51:33;18.90;99.90
8888;DHT22;4480;52.370;9.748;2023-07-31T09:54:08;18.90;99.90
8888;DHT22;4480;52.370;9.748;2023-07-31T09:56:37;19.00;99.90
8888;DHT22;4480;52.370;9.748;2023-07-31T09:59:05;18.90;99.90
8888;DHT22;4480;52.370;9.748;2023-07-31T10:01:34;18.80;99.90
8888;DHT22;4480;52.370;9.748;2023-07-31T10:04:01;18.80;99.90
8888;DHT22;4480;52.370;9.748;2023-07-31T10:06:28;18.70;99.90
8888;DHT22;4480;52.370;9.748;2023-07-31T10:08:56;18.70;99.90
8888;DHT22;4480;52.370;9.748;2023-07-31T10:11:24;18.80;99.90
8888;DHT22;4480;52.370;9.748;2023-07-31T10:13:54;18.80;99.90
8888;DHT22;4480;52.370;9.748;2023-07-31T10:16:21;18.90;99.90
8888;DHT22;4480;52.370;9.748;2023-07-31T10:18:49;19.00;99.90
8888;DHT22;4480;52.370;9.748;2023-07-31T10:21:18;19.00;99.90
8888;DHT22;4480;52.370;9.748;2023-07-31T10:23:45;19.10;99.90
8888;DHT22;4480;52.370;9.748;2023-07-31T10:26:17;19.10;99.90
8888;DHT22;4480;52.370;9.748;2023-07-31T10:28:46;19.20;99.90
8888;DHT22;4480;52.370;9.748;2023-07-31T10:31:15;19.30;99.90
8888;DHT22;4480;52.370;9.748;2023-07-31T10:33:42;19.30;99.90
8888;DHT22;4480;52.370;9.748;2023-07-31T10:36:12;19.40;99.90
8888;DHT22;4480;52.370;9.748;2023-07-31T10:38:40;19.40;99.90
8888;DHT22;4480;52.370;9.748;2023-07-31T10:41:10;19.40;99.90
8888;DHT22;4480;52.370;9.748;2023-07-31T10:43:38;19.50;99.90
8888;DHT22;4480;52.370;9.748;2023-07-31T10:46:09;19.50;99.90
8888;DHT22;4480;52.370;9.748;2023-07-31T10:48:39;19.70;99.90
8888;DHT22;4480;52.370;9.748;2023-07-31T10:51:08;19.80;99.90
8888;DHT22;4480;52.370;9.748;2023-07-31T10:53:36;19.80;99.90
8888;DHT22;4480;52.370;9.748;2023-07-31T10:56:04;19.80;99.90
8888;DHT22;4480;52.370;9.748;2023-07-31T10:58:32;19.70;99.90
8888;DHT22;4480;52.370;9.748;2023-07-31T11:01:03;19.70;99.90
8888;DHT22;4480;52.370;9.748;2023-07-31T11:03:43;19.80;99.90
8888;DHT22;4480;52.370;9.748;2023-07-31T11:06:11;19.80;99.90
8888;DHT22;4480;52.370;9.748;2023-07-31T11:08:42;19.80;99.90
8888;DHT22;4480;52.370;9.748;2023-07-31T11:11:10;19.80;99.90
8888;DHT22;4480;52.370;9.748;2023-07-31T11:13:42;19.90;99.90
8888;DHT22;4480;52.370;9.748;2023-07-31T11:16:12;20.00;99.90
8888;DHT22;4480;52.370;9.748;2023-07-31T11:18:42;20.10;99.90
8888;DHT22;4480;52.370;9.748;2023-07-31T11:21:12;20.10;99.90
8888;DHT22;4480;52.370;9.748;2023-07-31T11:23:40;20.20;99.90
8888;DHT22;4480;52.370;9.748;2023-07-31T11:26:07;20.20;99.90
8888;DHT22;4480;52.370;9.748;2023-07-31T11:28:35;20.30;99.90
8888;DHT22;4480;52.370;9.748;2023-07-31T11:31:02;20.30;99.90
8888;DHT22;4480;52.370;9.748;2023-07-31T11:33:30;20.40;99.90
8888;DHT22;4480;52.370;9.748;2023-07-31T11:35:57;20.30;99.90
8888;DHT22;4480;52.370;9.748;2023-07-31T11:38:25;20.00;99.90
8888;DHT22;4480;52.370;9.748;2023-07-31T11:40:53;19.80;99.90
8888;DHT22;4480;52.370;9.748;2023-07-31T11:43:21;19.70;99.90
8888;DHT22;4480;52.370;9.748;2023-07-31T11:45:48;19.70;99.90
8888;DHT22;4480;52.370;9.748;2023-07-31T11:48:19;19.70;99.90
8888;DHT22;4480;52.370;9.748;2023-07-31T11:50:49;19.80;99.90
8888;DHT22;4480;52.370;9.748;2023-07-31T11:53:19;19.90;99.90
8888;DHT22;4480;52.370;9.748;2023-07-31T11:55:47;20.00;99.90
8888;DHT22;4480;52.370;9.748;2023-07-31T11:58:15;20.10;99.90
8888;DHT22;4480;52.370;9.748;2023-07-31T12:00:42;20.30;99.90
8888;DHT22;4480;52.370;9.748;2023-07-31T12:03:10;20.40;99.90
8888;DHT22;4480;52.370;9.748;2023-07-31T12:05:37;20.60;99.90
8888;DHT22;4480;52.370;9.748;2023-07-31T12:08:10;20.70;99.90
8888;DHT22;4480;52.370;9.748;2023-07-31T12:10:38;20.90;99.90
8888;DHT22;4480;52.370;9.748;2023-07-31T12:13:10;21.00;99.90
8888;DHT22;4480;52.370;9.748;2023-07-31T12:15:40;21.00;99.90
8888;DHT22;4480;52.370;9.748;2023-07-31T12:18:09;21.00;99.90
8888;DHT22;4480;52.370;9.748;2023-07-31T12:20:41;21.00;99.90
8888;DHT22;4480;52.370;9.748;2023-07-31T12:23:14;20.90;99.90
8888;DHT22;4480;52.370;9.748;2023-07-31T12:25:41;20.70;99.90
8888;DHT22;4480;52.370;9.748;2023-07-31T12:28:08;20.60;99.90
8888;DHT22;4480;52.370;9.748;2023-07-31T12:30:38;20.60;99.90
8888;DHT22;4480;52.370;9.748;2023-07-31T12:33:06;20.60;99.90
8888;DHT22;4480;52.370;9.748;2023-07-31T12:35:37;20.50;99.90
8888;DHT22;4480;52.370;9.748;2023-07-31T12:38:04;20.40;99.90
8888;DHT22;4480;52.370;9.748;2023-07-31T12:40:32;20.40;99.90
8888;DHT22;4480;52.370;9.748;2023-07-31T12:43:01;20.40;99.90
8888;DHT22;4480;52.370;9.748;2023-07-31T12:45:29;20.40;99.90
8888;DHT22;4480;52.370;9.748;2023-07-31T12:47:56;20.30;99.90
8888;DHT22;4480;52.370;9.748;2023-07-31T12:50:23;20.40;99.90
8888;DHT22;4480;52.370;9.748;2023-07-31T12:52:51;20.40;99.90
8888;DHT22;4480;52.370;9.748;2023-07-31T12:55:18;20.40;99.90
8888;DHT22;4480;52.370;9.748;2023-07-31T12:57:46;20.30;99.90
8888;DHT22;4480;52.370;9.748;2023-07-31T13:00:13;20.20;99.90
8888;DHT22;4480;52.370;9.748;2023-07-31T13:02:40;20.20;99.90
8888;DHT22;4480;52.370;9.748;2023-07-31T13:05:07;20.10;99.90
8888;DHT22;4480;52.370;9.748;2023-07-31T13:07:34;20.10;99.90
8888;DHT22;4480;52.370;9.748;2023-07-31T13:10:01;20.20;99.90
8888;DHT22;4480;52.370;9.748;2023-07-31T13:12:28;20.40;99.90
8888;DHT22;4480;52.370;9.748;2023-07-31T13:14:56;20.50;99.90
8888;DHT22;4480;52.370;9.748;2023-07-31T13:17:23;20.60;99.90
8888;DHT22;4480;52.370;9.748;2023-07-31T13:19:50;20.60;99.90
8888;DHT22;4480;52.370;9.748;2023-07-31T13:22:17;20.70;99.90
8888;DHT22;4480;52.370;9.748;2023-07-31T13:24:44;20.60;99.90
8888;DHT22;4480;52.370;9.748;2023-07-31T13:27:10;20.60;99.90
8888;DHT22;4480;52.370;9.748;2023-07-31T13:29:37;20.70;99.90
8888;DHT22;4480;52.370;9.748;2023-07-31T13:32:06;20.70;99.90
8888;DHT22;4480;52.370;9.748;2023-07-31T13:34:32;20.70;99.90
8888;DHT22;4480;52.370;9.748;2023-07-31T13:36:59;20.70;99.90
8888;DHT22;4480;52.370;9.748;2023-07-31T13:39:26;20.70;99.90
8888;DHT22;4480;52.370;9.748;2023-07-31T13:41:53;20.80;99.90
8888;DHT22;4480;52.370;9.748;2023-07-31T13:44:20;20.90;99.90
8888;DHT22;4480;52.370;9.748;2023-07-31T13:46:47;21.00;99.90
8888;DHT22;4480;52.370;9.748;2023-07-31T13:49:15;21.10;99.90
8888;DHT22;4480;52.370;9.748;2023-07-31T13:51:42;21.30;99.90
8888;DHT22;4480;52.370;9.748;2023-07-31T13:54:08;21.60;99.90
8888;DHT22;4480;52.370;9.748;2023-07-31T13:56:37;21.80;99.90
8888;DHT22;4480;52.370;9.748;2023-07-31T13:59:04;21.80;99.90
8888;DHT22;4480;52.370;9.748;2023-07-31T14:01:31;21.80;99.90
8888;DHT22;4480;52.370;9.748;2023-07-31T14:03:58;21.70;99.90
8888;DHT22;4480;52.370;9.748;2023-07-31T14:06:26;21.70;99.90
8888;DHT22;4480;52.370;9.748;2023-07-31T14:08:52;21.70;99.90
8888;DHT22;4480;52.370;9.748;2023-07-31T14:11:21;21.60;99.90
8888;DHT22;4480;52.370;9.748;2023-07-31T14:13:47;21.50;99.90
8888;DHT22;4480;52.370;9.748;2023-07-31T14:16:14;21.50;99.90
8888;DHT22;4480;52.370;9.748;2023-07-31T14:18:41;21.50;99.90
8888;DHT22;4480;52.370;9.748;2023-07-31T14:21:08;21.50;99.90
8888;DHT22;4480;52.370;9.748;2023-07-31T14:23:36;21.50;99.90
8888;DHT22;4480;52.370;9.748;2023-07-31T14:26:03;21.50;99.90
8888;DHT22;4480;52.370;9.748;2023-07-31T14:28:30;21.50;99.90
8888;DHT22;4480;52.370;9.748;2023-07-31T14:30:57;21.50;99.90
8888;DHT22;4480;52.370;9.748;2023-07-31T14:33:24;21.50;99.90
8888;DHT22;4480;52.370;9.748;2023-07-31T14:35:51;21.40;99.90
8888;DHT22;4480;52.370;9.748;2023-07-31T14:38:18;21.40;99.90
8888;DHT22;4480;52.370;9.748;2023-07-31T14:40:46;21.30;99.90
8888;DHT22;4480;52.370;9.748;2023-07-31T14:43:13;21.20;99.90
8888;DHT22;4480;52.370;9.748;2023-07-31T14:45:40;21.10;99.90
8888;DHT22;4480;52.370;9.748;2023-07-31T14:48:07;21.00;99.90
8888;DHT22;4480;52.370;9.748;2023-07-31T14:50:33;20.90;99.90
8888;DHT22;4480;52.370;9.748;2023-07-31T14:53:01;20.90;99.90
8888;DHT22;4480;52.370;9.748;2023-07-31T14:55:27;20.80;99.90
8888;DHT22;4480;52.370;9.748;2023-07-31T14:57:55;20.80;99.90
8888;DHT22;4480;52.370;9.748;2023-07-31T15:00:22;20.70;99.90
8888;DHT22;4480;52.370;9.748;2023-07-31T15:02:50;20.70;99.90
8888;DHT22;4480;52.370;9.748;2023-07-31T15:05:17;20.70;99.90
8888;DHT22;4480;52.370;9.748;2023-07-31T15:07:43;20.80;99.90
8888;DHT22;4480;52.370;9.748;2023-07-31T15:10:10;21.00;99.90
8888;DHT22;4480;52.370;9.748;2023-07-31T15:12:37;21.20;99.90
8888;DHT22;4480;52.370;9.748;2023-07-31T15:15:07;21.50;99.90
8888;DHT22;4480;52.370;9.748;2023-07-31T15:17:33;21.80;99.90
8888;DHT22;4480;52.370;9.748;2023-07-31T15:20:00;21.90;99.90
8888;DHT22;4480;52.370;9.748;2023-07-31T15:22:27;22.00;99.90
8888;DHT22;4480;52.370;9.748;2023-07-31T15:24:56;22.00;99.90
8888;DHT22;4480;52.370;9.748;2023-07-31T15:27:22;21.90;99.90
8888;DHT22;4480;52.370;9.748;2023-07-31T15:29:50;21.80;99.90
8888;DHT22;4480;52.370;9.748;2023-07-31T15:32:18;21.80;99.90
8888;DHT22;4480;52.370;9.748;2023-07-31T15:34:45;21.70;99.90
8888;DHT22;4480;52.370;9.748;2023-07-31T15:37:12;21.50;99.90
8888;DHT22;4480;52.370;9.748;2023-07-31T15:39:39;21.50;99.90
8888;DHT22;4480;52.370;9.748;2023-07-31T15:42:07;21.40;99.90
8888;DHT22;4480;52.370;9.748;2023-07-31T15:44:34;21.20;99.90
8888;DHT22;4480;52.370;9.748;2023-07-31T15:47:02;21.10;99.90
8888;DHT22;4480;52.370;9.748;2023-07-31T15:49:30;21.00;99.90
8888;DHT22;4480;52.370;9.748;2023-07-31T15:51:57;21.00;99.90
8888;DHT22;4480;52.370;9.748;2023-07-31T15:54:24;20.90;99.90
8888;DHT22;4480;52.370;9.748;2023-07-31T15:56:51;21.00;99.90
8888;DHT22;4480;52.370;9.748;2023-07-31T15:59:17;21.00;99.90
8888;DHT22;4480;52.370;9.748;2023-07-31T16:01:44;21.20;99.90
8888;DHT22;4480;52.370;9.748;2023-07-31T16:04:11;21.30;99.90
8888;DHT22;4480;52.370;9.748;2023-07-31T16:06:39;21.40;99.90